createdAt,value
2022-10-14T00:02:09.608Z,7.97
2022-10-14T00:05:36.502Z,11.50
2022-10-14T00:08:48.560Z,8.20
2022-10-14T00:12:12.545Z,8.10
2022-10-14T00:15:24.583Z,10.40
2022-10-14T00:18:36.571Z,10.00
2022-10-14T00:21:50.642Z,8.37
2022-10-14T00:25:03.607Z,11.33
2022-10-14T00:28:03.577Z,7.85
2022-10-14T00:31:19.618Z,8.65
2022-10-14T00:34:19.598Z,8.50
2022-10-14T00:37:49.624Z,8.00
2022-10-14T00:40:52.685Z,12.27
2022-10-14T00:44:17.632Z,10.55
2022-10-14T00:47:41.705Z,11.75
2022-10-14T00:51:06.651Z,10.80
2022-10-14T00:54:32.639Z,8.27
2022-10-14T00:57:56.667Z,11.53
2022-10-14T01:01:08.715Z,13.23
2022-10-14T01:04:20.737Z,8.65
2022-10-14T01:07:35.699Z,8.75
2022-10-14T01:11:02.769Z,8.25
2022-10-14T01:14:14.702Z,11.47
2022-10-14T01:17:38.737Z,11.30
2022-10-14T01:21:06.772Z,9.80
2022-10-14T01:24:34.735Z,9.40
2022-10-14T01:27:50.740Z,11.50
2022-10-14T01:31:16.826Z,9.83
2022-10-14T01:34:40.767Z,8.35
2022-10-14T01:38:04.822Z,9.60
2022-10-14T01:41:31.810Z,8.90
2022-10-14T01:44:55.972Z,9.43
2022-10-14T01:48:21.826Z,9.40
2022-10-14T01:51:45.831Z,9.97
2022-10-14T01:54:57.872Z,13.05
2022-10-14T01:58:21.867Z,10.40
2022-10-14T02:01:33.899Z,10.97
2022-10-14T02:05:00.901Z,9.65
2022-10-14T02:08:12.906Z,14.43
2022-10-14T02:11:37.919Z,11.00
2022-10-14T02:14:50.909Z,10.73
2022-10-14T02:18:15.930Z,10.30
2022-10-14T02:21:42.930Z,9.97
2022-10-14T02:25:07.054Z,9.23
2022-10-14T02:28:32.011Z,9.53
2022-10-14T02:31:55.978Z,8.80
2022-10-14T02:35:20.027Z,10.85
2022-10-14T02:38:51.012Z,11.30
2022-10-14T02:42:03.017Z,9.93
2022-10-14T02:45:18.082Z,9.80
2022-10-14T02:48:29.997Z,9.57
2022-10-14T02:51:42.000Z,8.90
2022-10-14T02:55:08.047Z,9.50
2022-10-14T02:58:08.035Z,9.00
2022-10-14T03:01:37.203Z,8.40
2022-10-14T03:04:44.044Z,7.75
2022-10-14T03:07:56.085Z,8.47
2022-10-14T03:11:22.084Z,8.80
2022-10-14T03:14:35.212Z,9.20
2022-10-14T03:18:00.176Z,7.63
2022-10-14T03:21:13.189Z,7.75
2022-10-14T03:24:25.138Z,11.40
2022-10-14T03:27:53.132Z,8.90
2022-10-14T03:31:06.155Z,9.80
2022-10-14T03:34:19.192Z,11.75
2022-10-14T03:37:31.168Z,10.87
2022-10-14T03:40:55.169Z,9.00
2022-10-14T03:44:21.174Z,8.70
2022-10-14T03:47:35.212Z,9.87
2022-10-14T03:50:47.162Z,13.90
2022-10-14T03:54:11.228Z,10.70
2022-10-14T03:57:23.214Z,12.30
2022-10-14T04:00:49.234Z,12.50
2022-10-14T04:04:02.256Z,10.25
2022-10-14T04:07:14.344Z,10.57
2022-10-14T04:10:39.302Z,16.05
2022-10-14T04:13:51.324Z,11.10
2022-10-14T04:17:18.331Z,10.73
2022-10-14T04:20:30.306Z,11.13
2022-10-14T04:23:57.301Z,10.95
2022-10-14T04:27:21.315Z,11.77
2022-10-14T04:30:46.330Z,11.33
2022-10-14T04:34:12.352Z,10.75
2022-10-14T04:37:25.358Z,11.83
2022-10-14T04:40:38.373Z,10.80
2022-10-14T04:43:50.375Z,11.20
2022-10-14T04:47:02.379Z,9.95
2022-10-14T04:50:28.405Z,11.57
2022-10-14T04:53:43.422Z,11.70
2022-10-14T04:56:56.380Z,9.50
2022-10-14T04:59:56.531Z,13.40
2022-10-14T05:03:09.402Z,12.80
2022-10-14T05:06:35.500Z,11.10
2022-10-14T05:09:56.211Z,10.93
2022-10-14T05:13:15.449Z,11.70
2022-10-14T05:16:40.468Z,10.70
2022-10-14T05:20:05.548Z,14.73
2022-10-14T05:23:31.486Z,10.50
2022-10-14T05:26:31.482Z,9.90
2022-10-14T05:29:44.530Z,9.50
2022-10-14T05:32:56.521Z,15.75
2022-10-14T05:36:22.520Z,11.33
2022-10-14T05:39:48.536Z,12.35
2022-10-14T05:43:00.571Z,14.57
2022-10-14T05:46:13.565Z,14.40
2022-10-14T05:49:27.593Z,11.80
2022-10-14T05:52:39.581Z,11.05
2022-10-14T05:56:08.614Z,10.30
2022-10-14T05:59:34.615Z,13.77
2022-10-14T06:02:46.666Z,15.67
2022-10-14T06:05:58.639Z,12.03
2022-10-14T06:09:22.657Z,13.17
2022-10-14T06:12:48.720Z,11.45
2022-10-14T06:16:12.678Z,12.60
2022-10-14T06:19:25.708Z,13.87
2022-10-14T06:22:25.711Z,11.50
2022-10-14T06:25:49.659Z,10.60
2022-10-14T06:29:03.783Z,10.50
2022-10-14T06:32:15.709Z,13.47
2022-10-14T06:35:27.844Z,16.30
2022-10-14T06:38:39.727Z,10.33
2022-10-14T06:41:39.779Z,12.35
2022-10-14T06:45:06.747Z,12.55
2022-10-14T06:48:06.774Z,12.87
2022-10-14T06:51:19.776Z,11.40
2022-10-14T06:54:35.562Z,11.47
2022-10-14T06:57:44.780Z,11.80
2022-10-14T07:04:09.809Z,13.37
2022-10-14T07:07:09.787Z,15.83
2022-10-14T07:10:34.879Z,11.05
2022-10-14T07:13:34.831Z,12.27
2022-10-14T07:17:02.826Z,11.00
2022-10-14T07:20:02.884Z,13.10
2022-10-14T07:23:14.881Z,14.77
2022-10-14T07:26:26.887Z,13.50
2022-10-14T07:29:38.925Z,15.75
2022-10-14T07:32:52.935Z,12.67
2022-10-14T07:36:05.937Z,15.77
2022-10-14T07:39:18.917Z,14.45
2022-10-14T07:42:30.918Z,16.07
2022-10-14T07:45:42.937Z,13.80
2022-10-14T07:49:09.975Z,14.43
2022-10-14T07:52:09.947Z,16.80
2022-10-14T07:55:23.007Z,14.50
2022-10-14T07:58:22.976Z,12.97
2022-10-14T08:01:36.049Z,14.13
2022-10-14T08:05:25.675Z,15.40
2022-10-14T08:08:02.032Z,15.13
2022-10-14T08:11:26.998Z,22.87
2022-10-14T08:14:39.022Z,20.55
2022-10-14T08:17:51.075Z,20.00
2022-10-14T08:21:06.002Z,18.05
2022-10-14T08:24:30.029Z,21.13
2022-10-14T08:27:30.077Z,24.47
2022-10-14T08:30:45.092Z,20.70
2022-10-14T08:33:45.162Z,20.40
2022-10-14T08:37:11.128Z,17.47
2022-10-14T08:40:11.092Z,23.30
2022-10-14T08:43:39.181Z,22.00
2022-10-14T08:46:52.315Z,24.40
2022-10-14T08:50:16.176Z,22.00
2022-10-14T08:53:45.126Z,20.20
2022-10-14T09:00:10.196Z,21.73
2022-10-14T09:03:36.173Z,24.65
2022-10-14T09:06:49.166Z,24.65
2022-10-14T09:10:15.183Z,24.80
2022-10-14T09:13:28.210Z,20.70
2022-10-14T09:16:54.303Z,22.60
2022-10-14T09:20:06.232Z,24.05
2022-10-14T09:23:36.236Z,20.10
2022-10-14T09:27:04.233Z,25.35
2022-10-14T09:30:28.240Z,23.30
2022-10-14T09:33:42.293Z,22.03
2022-10-14T09:37:05.358Z,22.35
2022-10-14T09:40:17.279Z,23.07
2022-10-14T09:43:42.255Z,23.67
2022-10-14T09:46:42.297Z,20.03
2022-10-14T09:50:06.313Z,22.17
2022-10-14T09:53:19.342Z,23.13
2022-10-14T09:56:50.305Z,20.85
2022-10-14T10:00:04.358Z,23.73
2022-10-14T10:03:28.401Z,22.93
2022-10-14T10:06:40.312Z,22.35
2022-10-14T10:09:52.417Z,22.20
2022-10-14T10:12:53.393Z,22.57
2022-10-14T10:16:22.372Z,20.57
2022-10-14T10:19:44.442Z,20.40
2022-10-14T10:22:56.493Z,23.75
2022-10-14T10:25:56.420Z,21.50
2022-10-14T10:29:20.476Z,20.70
2022-10-14T10:32:35.454Z,20.73
2022-10-14T10:36:00.496Z,17.73
2022-10-14T10:39:14.452Z,24.00
2022-10-14T10:42:38.502Z,23.83
2022-10-14T10:45:52.713Z,20.10
2022-10-14T10:49:18.615Z,25.15
2022-10-14T10:52:33.498Z,22.70
2022-10-14T10:55:58.598Z,21.45
2022-10-14T10:59:13.655Z,21.93
2022-10-14T11:02:46.574Z,17.90
2022-10-14T11:06:12.590Z,23.07
2022-10-14T11:09:43.090Z,28.03
2022-10-14T11:12:55.693Z,23.30
2022-10-14T11:16:19.662Z,22.45
2022-10-14T11:19:31.650Z,27.53
2022-10-14T11:23:01.696Z,23.00
2022-10-14T11:26:25.718Z,29.10
2022-10-14T11:29:54.628Z,24.43
2022-10-14T11:33:09.655Z,26.40
2022-10-14T11:36:36.881Z,22.73
2022-10-14T11:39:52.642Z,25.15
2022-10-14T11:43:20.720Z,23.07
2022-10-14T11:46:32.904Z,25.85
2022-10-14T11:49:57.736Z,22.20
2022-10-14T11:53:09.742Z,23.10
2022-10-14T11:56:36.710Z,22.40
2022-10-14T11:59:53.708Z,21.87
2022-10-14T12:03:12.842Z,22.93
2022-10-14T12:06:36.741Z,25.00
2022-10-14T12:09:49.785Z,24.50
2022-10-14T12:13:20.784Z,21.03
2022-10-14T12:16:44.791Z,22.15
2022-10-14T12:20:11.817Z,19.93
2022-10-14T12:23:23.809Z,18.53
2022-10-14T12:26:52.861Z,19.20
2022-10-14T12:30:07.848Z,17.40
2022-10-14T12:33:32.887Z,16.87
2022-10-14T12:36:54.874Z,15.35
2022-10-14T12:40:18.829Z,14.77
2022-10-14T12:43:39.838Z,18.25
2022-10-14T12:47:08.917Z,15.40
2022-10-14T12:50:20.897Z,16.43
2022-10-14T12:53:48.894Z,15.10
2022-10-14T12:57:03.901Z,13.83
2022-10-14T13:00:27.939Z,14.50
2022-10-14T13:03:42.916Z,12.70
2022-10-14T13:07:11.913Z,12.60
2022-10-14T13:10:21.938Z,15.40
2022-10-14T13:13:52.973Z,14.23
2022-10-14T13:17:21.225Z,12.37
2022-10-14T13:20:50.956Z,12.00
2022-10-14T13:24:04.970Z,13.30
2022-10-14T13:27:31.001Z,14.60
2022-10-14T13:30:58.019Z,11.63
2022-10-14T13:34:26.032Z,11.73
2022-10-14T13:37:46.259Z,13.00
2022-10-14T13:41:15.033Z,11.20
2022-10-14T13:44:41.093Z,11.73
2022-10-14T13:48:06.066Z,11.35
2022-10-14T13:51:31.719Z,11.77
2022-10-14T13:54:44.067Z,10.77
2022-10-14T13:58:11.984Z,12.10
2022-10-14T14:01:23.129Z,12.15
2022-10-14T14:04:48.157Z,11.37
2022-10-14T14:11:25.140Z,11.20
2022-10-14T14:14:42.154Z,13.20
2022-10-14T14:18:06.363Z,12.60
2022-10-14T14:21:20.172Z,15.23
2022-10-14T14:24:47.322Z,11.70
2022-10-14T14:27:59.222Z,15.40
2022-10-14T14:31:48.030Z,14.25
2022-10-14T14:34:41.239Z,12.10
2022-10-14T14:38:06.235Z,12.00
2022-10-14T14:41:28.202Z,12.30
2022-10-14T14:44:52.235Z,11.37
2022-10-14T14:48:06.379Z,12.67
2022-10-14T14:51:30.288Z,12.15
2022-10-14T14:54:42.266Z,11.93
2022-10-14T14:58:06.279Z,13.07
2022-10-14T15:01:18.292Z,12.10
2022-10-14T15:04:44.335Z,11.37
2022-10-14T15:08:09.286Z,11.83
2022-10-14T15:11:21.504Z,10.53
2022-10-14T15:14:36.314Z,10.37
2022-10-14T15:18:00.371Z,11.13
2022-10-14T15:21:14.298Z,10.70
2022-10-14T15:24:39.373Z,10.65
2022-10-14T15:27:54.326Z,10.45
2022-10-14T15:31:07.348Z,10.10
2022-10-14T15:34:07.354Z,10.77
2022-10-14T15:37:35.383Z,9.90
2022-10-14T15:40:47.379Z,10.25
2022-10-14T15:43:59.426Z,9.20
2022-10-14T15:47:17.083Z,9.23
2022-10-14T15:50:41.432Z,9.95
2022-10-14T15:53:55.416Z,10.33
2022-10-14T15:57:20.563Z,8.30
2022-10-14T16:00:21.486Z,8.70
2022-10-14T16:03:45.504Z,8.50
2022-10-14T16:06:48.477Z,8.55
2022-10-14T16:10:14.547Z,8.47
2022-10-14T16:13:14.498Z,8.07
2022-10-14T16:16:38.507Z,8.07
2022-10-14T16:19:38.507Z,7.17
2022-10-14T16:22:51.495Z,7.35
2022-10-14T16:26:05.519Z,8.10
2022-10-14T16:29:17.554Z,7.55
2022-10-14T16:32:18.615Z,7.80
2022-10-14T16:35:30.598Z,5.85
2022-10-14T16:38:30.588Z,7.23
2022-10-14T16:41:56.598Z,5.85
2022-10-14T16:44:56.560Z,5.80
2022-10-14T16:48:08.884Z,5.65
2022-10-14T16:51:21.603Z,5.90
2022-10-14T16:54:36.643Z,5.37
2022-10-14T16:57:50.609Z,5.13
2022-10-14T17:01:05.175Z,5.55
2022-10-14T17:04:03.621Z,5.75
2022-10-14T17:07:27.678Z,5.65
2022-10-14T17:10:27.740Z,5.05
2022-10-14T17:13:56.709Z,5.23
2022-10-14T17:16:56.653Z,5.30
2022-10-14T17:20:09.728Z,4.97
2022-10-14T17:23:10.535Z,5.30
2022-10-14T17:26:36.741Z,4.90
2022-10-14T17:29:50.705Z,4.63
2022-10-14T17:33:14.767Z,4.57
2022-10-14T17:36:26.748Z,5.00
2022-10-14T17:39:50.764Z,5.30
2022-10-14T17:42:51.779Z,4.65
2022-10-14T17:46:17.820Z,4.05
2022-10-14T17:49:29.762Z,4.30
2022-10-14T17:52:41.796Z,4.63
2022-10-14T17:55:56.821Z,8.20
2022-10-14T17:59:17.810Z,3.70
2022-10-14T18:02:31.890Z,4.60
2022-10-14T18:05:55.847Z,4.00
2022-10-14T18:09:19.848Z,4.17
2022-10-14T18:12:33.088Z,4.37
2022-10-14T18:15:32.921Z,3.97
2022-10-14T18:18:57.891Z,4.80
2022-10-14T18:21:57.874Z,4.07
2022-10-14T18:25:09.939Z,4.60
2022-10-14T18:28:09.975Z,3.80
2022-10-14T18:31:34.951Z,4.53
2022-10-14T18:34:48.921Z,4.45
2022-10-14T18:38:01.968Z,4.13
2022-10-14T18:41:16.968Z,5.97
2022-10-14T18:44:41.978Z,4.47
2022-10-14T18:47:42.015Z,4.17
2022-10-14T18:51:06.969Z,4.60
2022-10-14T18:54:19.013Z,4.67
2022-10-14T18:57:31.015Z,4.90
2022-10-14T19:00:31.996Z,4.70
2022-10-14T19:03:45.019Z,4.80
2022-10-14T19:06:59.048Z,5.10
2022-10-14T19:10:12.092Z,4.90
2022-10-14T19:13:12.036Z,5.37
2022-10-14T19:16:36.026Z,5.50
2022-10-14T19:19:36.121Z,5.90
2022-10-14T19:23:03.055Z,8.65
2022-10-14T19:29:39.080Z,5.60
2022-10-14T19:32:39.146Z,6.25
2022-10-14T19:35:54.169Z,6.50
2022-10-14T19:39:08.119Z,5.37
2022-10-14T19:42:20.082Z,5.70
2022-10-14T19:45:32.166Z,6.07
2022-10-14T19:48:45.154Z,5.90
2022-10-14T19:51:57.189Z,6.23
2022-10-14T19:55:23.153Z,6.00
2022-10-14T19:58:24.203Z,5.50
2022-10-14T20:01:48.265Z,5.80
2022-10-14T20:05:00.244Z,6.03
2022-10-14T20:08:12.275Z,5.15
2022-10-14T20:11:38.213Z,6.43
2022-10-14T20:14:44.248Z,5.80
2022-10-14T20:17:57.250Z,6.85
2022-10-14T20:20:57.243Z,5.35
2022-10-14T20:24:12.263Z,5.50
2022-10-14T20:27:26.375Z,5.57
2022-10-14T20:30:39.334Z,5.40
2022-10-14T20:33:39.358Z,6.10
2022-10-14T20:36:51.302Z,5.40
2022-10-14T20:39:51.343Z,7.00
2022-10-14T20:43:17.313Z,6.20
2022-10-14T20:46:17.598Z,5.23
2022-10-14T20:49:41.364Z,6.05
2022-10-14T20:52:53.332Z,5.90
2022-10-14T20:56:05.436Z,6.33
2022-10-14T20:59:21.528Z,8.60
2022-10-14T21:02:46.390Z,5.93
2022-10-14T21:06:01.775Z,6.43
2022-10-14T21:09:15.538Z,6.10
2022-10-14T21:12:15.408Z,6.35
2022-10-14T21:15:42.470Z,5.90
2022-10-14T21:18:42.458Z,6.23
2022-10-14T21:22:06.416Z,6.27
2022-10-14T21:25:06.451Z,7.00
2022-10-14T21:28:30.458Z,8.05
2022-10-14T21:31:44.483Z,6.40
2022-10-14T21:34:57.490Z,6.77
2022-10-14T21:37:57.553Z,6.87
2022-10-14T21:41:22.505Z,7.60
2022-10-14T21:44:35.553Z,6.70
2022-10-14T21:48:01.538Z,10.05
2022-10-14T21:51:13.618Z,7.10
2022-10-14T21:54:37.558Z,6.85
2022-10-14T21:57:37.560Z,7.45
2022-10-14T22:00:49.637Z,8.53
2022-10-14T22:04:18.620Z,9.77
2022-10-14T22:07:18.569Z,11.23
2022-10-14T22:10:36.623Z,8.15
2022-10-14T22:13:36.657Z,10.13
2022-10-14T22:17:00.619Z,11.90
2022-10-14T22:20:16.642Z,8.13
2022-10-14T22:23:40.613Z,8.00
2022-10-14T22:26:53.713Z,9.67
2022-10-14T22:30:05.639Z,7.70
2022-10-14T22:36:31.679Z,9.00
2022-10-14T22:39:31.685Z,8.20
2022-10-14T22:42:46.591Z,11.30
2022-10-14T22:45:43.929Z,8.65
2022-10-14T22:49:10.705Z,8.47
2022-10-14T22:52:24.907Z,9.95
2022-10-14T22:55:37.747Z,11.35
2022-10-14T22:58:37.750Z,10.57
2022-10-14T23:02:04.774Z,8.90
2022-10-14T23:05:04.898Z,11.70
2022-10-14T23:08:31.860Z,9.50
2022-10-14T23:11:43.787Z,10.17
2022-10-14T23:15:01.790Z,14.45
2022-10-14T23:18:01.830Z,11.60
2022-10-14T23:21:31.799Z,17.50
2022-10-14T23:24:45.826Z,11.93
2022-10-14T23:28:09.836Z,12.10
2022-10-14T23:31:09.851Z,17.25
2022-10-14T23:34:34.913Z,12.90
2022-10-14T23:37:46.857Z,15.37
2022-10-14T23:41:12.872Z,11.80
2022-10-14T23:44:12.912Z,13.05
2022-10-14T23:47:26.287Z,12.25
2022-10-14T23:50:25.911Z,10.10
2022-10-14T23:53:49.912Z,11.63
2022-10-14T23:57:03.962Z,14.40
